Terminal Aerodrome Forecast
Issued by NWS

Home | Current Version | Previous Version | Text Only | Print | Product List | Glossary On
Versions: 1 2 3 4 5 6 7 8 9 10 11 12 13 14 15 16 17 18 19 20 21 22 23 24 25 26 27 28 29 30 31 32 33 34 35 36 37 38 39 40 41 42 43 44 45 46 47 48 49 50
000
FTUS44 KHGX 040657 AAA
TAFIAH
TAF AMD
KIAH 040657Z 0407/0512 16004KT 6SM BR OVC006
      TEMPO 0410/0413 4SM -DZ BR OVC003
     FM042000 16010KT P6SM SCT025 BKN050
     FM050000 16008KT P6SM VCTS BKN025CB
     FM050300 34012KT P6SM VCSH BKN015
     FM050600 34018KT P6SM BKN035=

USA.gov is the U.S. government's official web portal to all federal, state and local government web resources and services.